createdAt,value
2022-09-30T00:00:43.495Z,27.53
2022-09-30T00:02:35.705Z,26.37
2022-09-30T00:04:15.639Z,29.07
2022-09-30T00:05:48.214Z,29.70
2022-09-30T00:07:20.616Z,28.27
2022-09-30T00:08:53.946Z,30.27
2022-09-30T00:10:26.143Z,30.70
2022-09-30T00:11:58.506Z,29.20
2022-09-30T00:13:37.366Z,28.90
2022-09-30T00:15:10.519Z,31.50
2022-09-30T00:16:43.696Z,29.87
2022-09-30T00:18:16.164Z,35.20
2022-09-30T00:19:48.659Z,31.57
2022-09-30T00:21:21.283Z,40.80
2022-09-30T00:22:53.436Z,40.33
2022-09-30T00:24:26.018Z,37.90
2022-09-30T00:26:04.414Z,35.50
2022-09-30T00:27:36.608Z,35.83
2022-09-30T00:29:11.013Z,37.43
2022-09-30T00:30:43.811Z,35.17
2022-09-30T00:32:16.112Z,34.37
2022-09-30T00:34:07.841Z,30.43
2022-09-30T00:35:40.765Z,29.10
2022-09-30T00:37:15.226Z,31.40
2022-09-30T00:38:47.337Z,28.20
2022-09-30T00:40:21.031Z,29.27
2022-09-30T00:41:59.175Z,26.60
2022-09-30T00:43:53.424Z,30.57
2022-09-30T00:45:31.980Z,29.33
2022-09-30T00:47:06.982Z,29.10
2022-09-30T00:48:40.275Z,29.20
2022-09-30T00:50:55.556Z,34.03
2022-09-30T00:52:28.876Z,28.10
2022-09-30T00:54:09.876Z,25.37
2022-09-30T00:55:51.567Z,25.50
2022-09-30T00:57:23.826Z,30.70
2022-09-30T00:59:08.533Z,28.93
2022-09-30T01:00:41.591Z,27.03
2022-09-30T01:02:14.854Z,25.47
2022-09-30T01:03:53.907Z,24.70
2022-09-30T01:05:27.471Z,29.63
2022-09-30T01:07:06.882Z,27.83
2022-09-30T01:08:40.680Z,28.73
2022-09-30T01:10:13.065Z,28.83
2022-09-30T01:11:46.732Z,30.27
2022-09-30T01:13:23.918Z,28.80
2022-09-30T01:15:00.178Z,26.17
2022-09-30T01:17:00.638Z,24.07
2022-09-30T01:18:51.881Z,26.73
2022-09-30T01:20:51.496Z,28.77
2022-09-30T01:22:59.366Z,29.27
2022-09-30T01:25:05.490Z,26.03
2022-09-30T01:27:02.252Z,27.50
2022-09-30T01:29:33.712Z,25.83
2022-09-30T01:31:41.738Z,25.93
2022-09-30T01:33:41.372Z,26.80
2022-09-30T01:35:42.850Z,27.53
2022-09-30T01:37:46.327Z,25.57
2022-09-30T01:40:22.680Z,27.93
2022-09-30T01:42:18.247Z,27.33
2022-09-30T01:44:08.457Z,27.80
2022-09-30T01:46:19.703Z,27.13
2022-09-30T01:48:40.536Z,24.50
2022-09-30T01:50:25.484Z,26.70
2022-09-30T01:52:15.439Z,25.90
2022-09-30T01:53:56.282Z,26.13
2022-09-30T01:55:50.724Z,25.73
2022-09-30T01:57:52.820Z,26.27
2022-09-30T02:00:08.130Z,24.60
2022-09-30T02:01:59.611Z,22.67
2022-09-30T02:03:47.372Z,26.13
2022-09-30T02:05:45.026Z,22.73
2022-09-30T02:07:40.747Z,31.17
2022-09-30T02:09:25.067Z,25.40
2022-09-30T02:11:22.392Z,25.17
2022-09-30T02:13:05.507Z,26.00
2022-09-30T02:14:47.516Z,26.17
2022-09-30T02:16:35.033Z,23.63
2022-09-30T02:18:41.133Z,22.37
2022-09-30T02:20:29.509Z,22.23
2022-09-30T02:22:14.438Z,22.00
2022-09-30T02:23:53.139Z,22.17
2022-09-30T02:25:36.681Z,22.77
2022-09-30T02:27:41.104Z,23.97
2022-09-30T02:29:23.694Z,21.90
2022-09-30T02:31:02.201Z,20.23
2022-09-30T02:32:46.912Z,21.03
2022-09-30T02:34:29.272Z,20.73
2022-09-30T02:36:18.643Z,20.47
2022-09-30T02:38:03.792Z,17.40
2022-09-30T02:39:54.280Z,19.33
2022-09-30T02:41:30.868Z,17.87
2022-09-30T02:43:05.312Z,18.13
2022-09-30T02:44:39.107Z,21.27
2022-09-30T02:47:01.373Z,15.83
2022-09-30T02:48:50.267Z,18.03
2022-09-30T02:50:43.753Z,19.13
2022-09-30T02:52:37.066Z,20.07
2022-09-30T02:54:30.674Z,18.83
2022-09-30T02:56:43.933Z,18.07
2022-09-30T02:58:21.459Z,21.80
2022-09-30T02:59:53.767Z,20.80
2022-09-30T03:01:26.523Z,18.93
2022-09-30T03:03:19.897Z,19.47
2022-09-30T03:04:52.091Z,18.33
2022-09-30T03:06:25.044Z,17.70
2022-09-30T03:07:57.828Z,24.90
2022-09-30T03:09:30.155Z,19.93
2022-09-30T03:11:04.580Z,20.50
2022-09-30T03:13:20.887Z,19.10
2022-09-30T03:15:23.858Z,22.20
2022-09-30T03:18:14.926Z,23.03
2022-09-30T03:20:04.908Z,18.27
2022-09-30T03:22:11.710Z,20.37
2022-09-30T03:24:09.843Z,21.97
2022-09-30T03:25:59.517Z,20.63
2022-09-30T03:28:02.807Z,21.43
2022-09-30T03:29:54.767Z,20.50
2022-09-30T03:31:48.804Z,20.00
2022-09-30T03:33:48.247Z,21.90
2022-09-30T03:35:41.555Z,23.87
2022-09-30T03:37:30.252Z,25.67
2022-09-30T03:39:57.004Z,26.87
2022-09-30T03:42:04.970Z,33.97
2022-09-30T03:43:49.642Z,28.70
2022-09-30T03:46:11.674Z,29.37
2022-09-30T03:47:51.972Z,26.67
2022-09-30T03:49:31.256Z,24.27
2022-09-30T03:51:05.706Z,22.10
2022-09-30T03:52:38.595Z,25.63
2022-09-30T03:54:13.656Z,23.03
2022-09-30T03:55:52.277Z,20.60
2022-09-30T03:57:30.039Z,27.07
2022-09-30T03:59:02.352Z,20.20
2022-09-30T04:00:35.076Z,22.87
2022-09-30T04:02:09.926Z,20.17
2022-09-30T04:03:42.704Z,19.60
2022-09-30T04:05:15.199Z,23.13
2022-09-30T04:06:47.675Z,16.33
2022-09-30T04:08:20.292Z,18.93
2022-09-30T04:09:52.999Z,21.37
2022-09-30T04:11:25.170Z,19.17
2022-09-30T04:12:57.870Z,17.77
2022-09-30T04:14:30.271Z,19.10
2022-09-30T04:16:03.360Z,19.07
2022-09-30T04:17:35.534Z,23.20
2022-09-30T04:19:07.712Z,19.57
2022-09-30T04:20:39.833Z,20.70
2022-09-30T04:22:12.277Z,19.87
2022-09-30T04:23:45.015Z,18.70
2022-09-30T04:25:17.568Z,21.37
2022-09-30T04:26:50.758Z,19.50
2022-09-30T04:28:23.704Z,24.03
2022-09-30T04:29:56.170Z,18.20
2022-09-30T04:31:28.392Z,18.17
2022-09-30T04:33:00.901Z,19.73
2022-09-30T04:34:33.295Z,17.23
2022-09-30T04:36:06.359Z,16.93
2022-09-30T04:37:45.829Z,15.57
2022-09-30T04:39:18.192Z,19.27
2022-09-30T04:40:52.320Z,15.27
2022-09-30T04:42:25.213Z,15.30
2022-09-30T04:43:57.440Z,14.63
2022-09-30T04:45:30.109Z,15.17
2022-09-30T04:47:03.382Z,15.80
2022-09-30T04:48:35.550Z,15.77
2022-09-30T04:50:08.225Z,16.87
2022-09-30T04:51:43.965Z,15.07
2022-09-30T04:53:18.417Z,13.83
2022-09-30T04:54:50.558Z,13.77
2022-09-30T04:56:24.395Z,14.53
2022-09-30T04:57:56.744Z,14.30
2022-09-30T04:59:29.495Z,14.10
2022-09-30T05:01:11.250Z,16.40
2022-09-30T05:02:44.951Z,15.17
2022-09-30T05:04:17.160Z,16.33
2022-09-30T05:05:49.558Z,25.90
2022-09-30T05:07:22.310Z,22.53
2022-09-30T05:08:54.861Z,16.37
2022-09-30T05:10:27.593Z,18.40
2022-09-30T05:12:02.385Z,18.77
2022-09-30T05:13:39.127Z,17.73
2022-09-30T05:15:11.794Z,16.10
2022-09-30T05:16:43.928Z,14.20
2022-09-30T05:18:16.712Z,19.43
2022-09-30T05:19:48.843Z,18.63
2022-09-30T05:21:20.971Z,16.53
2022-09-30T05:22:56.798Z,18.90
2022-09-30T05:24:30.961Z,20.00
2022-09-30T05:26:03.592Z,19.97
2022-09-30T05:27:36.550Z,23.33
2022-09-30T05:29:10.416Z,18.13
2022-09-30T05:30:43.653Z,19.07
2022-09-30T05:32:16.015Z,22.43
2022-09-30T05:33:48.238Z,22.30
2022-09-30T05:35:23.071Z,20.20
2022-09-30T05:36:55.557Z,22.33
2022-09-30T05:38:28.558Z,23.73
2022-09-30T05:40:01.139Z,24.27
2022-09-30T05:41:33.372Z,24.73
2022-09-30T05:43:07.084Z,22.23
2022-09-30T05:44:39.339Z,26.13
2022-09-30T05:46:11.732Z,28.00
2022-09-30T05:47:44.024Z,23.77
2022-09-30T05:49:16.683Z,30.10
2022-09-30T05:50:50.586Z,29.60
2022-09-30T05:52:22.729Z,23.90
2022-09-30T05:53:54.966Z,25.40
2022-09-30T05:55:27.591Z,23.43
2022-09-30T05:57:00.864Z,22.43
2022-09-30T05:58:33.691Z,24.40
2022-09-30T06:00:06.795Z,22.53
2022-09-30T06:01:39.376Z,19.30
2022-09-30T06:03:12.186Z,26.23
2022-09-30T06:04:44.365Z,21.53
2022-09-30T06:06:17.108Z,16.60
2022-09-30T06:07:50.798Z,24.97
2022-09-30T06:09:23.138Z,27.83
2022-09-30T06:10:55.474Z,30.47
2022-09-30T06:12:28.811Z,29.13
2022-09-30T06:14:01.372Z,24.30
2022-09-30T06:15:33.768Z,28.77
2022-09-30T06:17:06.435Z,29.67
2022-09-30T06:18:41.612Z,29.37
2022-09-30T06:20:14.831Z,24.10
2022-09-30T06:21:47.176Z,21.53
2022-09-30T06:23:20.331Z,21.73
2022-09-30T06:24:55.086Z,24.27
2022-09-30T06:26:27.963Z,21.83
2022-09-30T06:28:01.603Z,21.37
2022-09-30T06:29:33.772Z,27.40
2022-09-30T06:31:07.078Z,23.87
2022-09-30T06:32:39.926Z,27.97
2022-09-30T06:34:12.193Z,26.87
2022-09-30T06:35:47.248Z,24.43
2022-09-30T06:37:20.260Z,25.63
2022-09-30T06:38:54.485Z,24.83
2022-09-30T06:40:26.795Z,22.17
2022-09-30T06:41:58.986Z,26.23
2022-09-30T06:43:35.062Z,27.50
2022-09-30T06:45:26.480Z,30.47
2022-09-30T06:47:01.109Z,22.47
2022-09-30T06:48:38.547Z,25.57
2022-09-30T06:50:21.026Z,26.93
2022-09-30T06:51:57.053Z,26.30
2022-09-30T06:53:29.724Z,20.73
2022-09-30T06:55:01.867Z,26.17
2022-09-30T06:56:34.827Z,25.97
2022-09-30T06:58:13.333Z,23.20
2022-09-30T06:59:45.815Z,22.27
2022-09-30T07:01:20.767Z,17.60
2022-09-30T07:02:59.265Z,28.93
2022-09-30T07:04:32.252Z,16.20
2022-09-30T07:06:06.859Z,20.33
2022-09-30T07:07:39.183Z,11.90
2022-09-30T07:09:12.585Z,25.97
2022-09-30T07:10:47.612Z,17.90
2022-09-30T07:12:19.833Z,24.10
2022-09-30T07:13:52.215Z,18.30
2022-09-30T07:15:24.379Z,25.37
2022-09-30T07:16:57.290Z,24.20
2022-09-30T07:18:29.570Z,22.40
2022-09-30T07:20:02.055Z,22.50
2022-09-30T07:21:34.718Z,23.13
2022-09-30T07:23:07.016Z,24.87
2022-09-30T07:24:39.198Z,24.07
2022-09-30T07:26:12.127Z,15.63
2022-09-30T07:27:44.969Z,22.00
2022-09-30T07:29:17.367Z,16.33
2022-09-30T07:30:50.506Z,26.07
2022-09-30T07:32:23.550Z,17.60
2022-09-30T07:33:56.766Z,15.13
2022-09-30T07:35:29.189Z,22.77
2022-09-30T07:37:02.407Z,20.23
2022-09-30T07:38:38.921Z,19.27
2022-09-30T07:40:11.735Z,17.73
2022-09-30T07:41:45.493Z,21.23
2022-09-30T07:43:19.163Z,18.70
2022-09-30T07:44:52.702Z,19.67
2022-09-30T07:46:30.362Z,21.80
2022-09-30T07:48:03.109Z,20.57
2022-09-30T07:49:35.992Z,18.40
2022-09-30T07:51:10.092Z,20.17
2022-09-30T07:52:42.743Z,20.77
2022-09-30T07:54:21.116Z,21.10
2022-09-30T07:55:53.427Z,12.60
2022-09-30T07:57:25.636Z,18.90
2022-09-30T07:59:01.204Z,26.70
2022-09-30T08:00:42.892Z,14.63
2022-09-30T08:02:19.038Z,18.40
2022-09-30T08:03:59.111Z,18.63
2022-09-30T08:05:31.526Z,16.10
2022-09-30T08:07:04.799Z,17.03
2022-09-30T08:08:37.718Z,19.33
2022-09-30T08:10:10.323Z,15.07
2022-09-30T08:11:43.095Z,19.20
2022-09-30T08:13:16.675Z,14.90
2022-09-30T08:14:48.843Z,15.40
2022-09-30T08:16:24.179Z,12.50
2022-09-30T08:17:56.475Z,16.67
2022-09-30T08:19:31.238Z,14.50
2022-09-30T08:21:06.481Z,16.27
2022-09-30T08:22:38.631Z,17.37
2022-09-30T08:24:11.274Z,16.23
2022-09-30T08:25:43.667Z,14.53
2022-09-30T08:27:15.919Z,14.20
2022-09-30T08:28:48.370Z,17.97
2022-09-30T08:30:20.608Z,14.33
2022-09-30T08:31:53.188Z,11.93
2022-09-30T08:33:25.459Z,13.10
2022-09-30T08:34:57.651Z,14.50
2022-09-30T08:36:30.666Z,13.03
2022-09-30T08:38:03.725Z,12.00
2022-09-30T08:39:37.868Z,14.33
2022-09-30T08:42:02.257Z,11.73
2022-09-30T08:44:01.871Z,12.30
2022-09-30T08:46:07.478Z,16.47
2022-09-30T08:48:28.775Z,15.10
2022-09-30T08:50:29.695Z,15.03
2022-09-30T08:52:05.543Z,14.73
2022-09-30T08:53:43.772Z,16.30
2022-09-30T08:55:24.144Z,8.93
2022-09-30T08:56:57.347Z,14.93
2022-09-30T08:58:37.781Z,12.13
2022-09-30T09:00:16.317Z,16.47
2022-09-30T09:01:58.255Z,11.73
2022-09-30T09:03:31.847Z,16.43
2022-09-30T09:05:14.110Z,13.77
2022-09-30T09:07:23.404Z,13.40
2022-09-30T09:09:23.199Z,9.70
2022-09-30T09:11:21.148Z,12.97
2022-09-30T09:13:02.276Z,11.33
2022-09-30T09:15:02.621Z,14.53
2022-09-30T09:17:34.361Z,11.87
2022-09-30T09:19:10.963Z,13.90
2022-09-30T09:20:56.397Z,14.67
2022-09-30T09:22:31.655Z,10.90
2022-09-30T09:24:14.807Z,15.37
2022-09-30T09:25:49.879Z,15.13
2022-09-30T09:27:42.258Z,14.27
2022-09-30T09:29:46.607Z,17.40
2022-09-30T09:31:20.675Z,14.40
2022-09-30T09:32:58.175Z,14.17
2022-09-30T09:34:31.191Z,15.47
2022-09-30T09:36:30.754Z,12.93
2022-09-30T09:38:27.333Z,14.50
2022-09-30T09:40:04.317Z,9.93
2022-09-30T09:42:10.197Z,12.33
2022-09-30T09:44:01.079Z,15.67
2022-09-30T09:46:02.012Z,13.03
2022-09-30T09:47:34.393Z,16.10
2022-09-30T09:49:23.555Z,12.90
2022-09-30T09:51:13.203Z,10.90
2022-09-30T09:53:30.212Z,10.37
2022-09-30T09:55:03.052Z,9.57
2022-09-30T09:56:38.242Z,15.83
2022-09-30T09:58:14.587Z,14.33
2022-09-30T10:00:39.121Z,17.77
2022-09-30T10:02:28.479Z,16.03
2022-09-30T10:04:24.490Z,16.43
2022-09-30T10:06:13.409Z,14.73
2022-09-30T10:07:46.106Z,14.87
2022-09-30T10:09:28.317Z,15.47
2022-09-30T10:11:07.562Z,16.10
2022-09-30T10:12:42.105Z,16.00
2022-09-30T10:14:22.333Z,17.00
2022-09-30T10:15:58.075Z,19.00
2022-09-30T10:17:37.186Z,20.53
2022-09-30T10:19:27.540Z,16.17
2022-09-30T10:21:25.775Z,17.70
2022-09-30T10:23:30.549Z,12.60
2022-09-30T10:25:15.327Z,19.90
2022-09-30T10:26:49.169Z,18.47
2022-09-30T10:28:30.073Z,23.97
2022-09-30T10:30:03.778Z,21.37
2022-09-30T10:31:44.842Z,20.70
2022-09-30T10:33:28.624Z,22.33
2022-09-30T10:35:18.557Z,18.40
2022-09-30T10:36:52.535Z,20.37
2022-09-30T10:38:29.863Z,21.33
2022-09-30T10:40:16.288Z,18.33
2022-09-30T10:41:50.188Z,22.07
2022-09-30T10:43:44.814Z,19.57
2022-09-30T10:45:22.445Z,14.70
2022-09-30T10:47:02.548Z,20.77
2022-09-30T10:48:38.196Z,24.13
2022-09-30T10:50:21.661Z,22.27
2022-09-30T10:51:57.243Z,23.40
2022-09-30T10:53:35.873Z,20.93
2022-09-30T10:55:21.919Z,20.60
2022-09-30T10:56:54.623Z,17.10
2022-09-30T10:58:43.210Z,23.40
2022-09-30T11:00:25.470Z,23.30
2022-09-30T11:02:16.709Z,21.67
2022-09-30T11:04:25.468Z,20.20
2022-09-30T11:06:00.420Z,23.90
2022-09-30T11:07:46.317Z,21.33
2022-09-30T11:09:38.067Z,22.13
2022-09-30T11:11:27.487Z,10.43
2022-09-30T11:13:37.238Z,15.67
2022-09-30T11:15:40.399Z,12.63
2022-09-30T11:17:34.525Z,18.97
2022-09-30T11:19:22.098Z,18.33
2022-09-30T11:21:02.000Z,22.50
2022-09-30T11:22:47.932Z,15.37
2022-09-30T11:24:50.219Z,22.97
2022-09-30T11:27:20.032Z,23.63
2022-09-30T11:29:51.177Z,19.33
2022-09-30T11:31:59.625Z,18.87
2022-09-30T11:33:48.109Z,21.10
2022-09-30T11:36:42.864Z,23.27
2022-09-30T11:38:34.246Z,20.60
2022-09-30T11:40:38.906Z,23.47
2022-09-30T11:42:28.606Z,18.97
2022-09-30T11:44:15.715Z,19.27
2022-09-30T11:46:20.754Z,20.97
2022-09-30T11:48:28.226Z,25.10
2022-09-30T11:50:57.314Z,19.33
2022-09-30T11:53:26.658Z,14.20
2022-09-30T11:55:25.949Z,19.20
2022-09-30T11:57:24.411Z,20.30
2022-09-30T11:59:03.389Z,15.53
2022-09-30T12:00:45.460Z,19.17
2022-09-30T12:02:39.295Z,20.27
2022-09-30T12:04:36.871Z,17.27
2022-09-30T12:06:26.781Z,20.07
2022-09-30T12:08:18.607Z,18.50
2022-09-30T12:09:59.438Z,21.37
2022-09-30T12:11:52.335Z,20.90
2022-09-30T12:13:36.538Z,18.77
2022-09-30T12:15:18.588Z,18.97
2022-09-30T12:16:51.636Z,18.90
2022-09-30T12:18:37.567Z,18.83
2022-09-30T12:20:38.588Z,25.23
2022-09-30T12:22:28.912Z,23.10
2022-09-30T12:24:17.255Z,20.20
2022-09-30T12:26:01.955Z,17.23
2022-09-30T12:27:50.352Z,20.30
2022-09-30T12:29:56.587Z,16.70
2022-09-30T12:32:09.317Z,16.07
2022-09-30T12:34:06.921Z,16.37
2022-09-30T12:36:40.031Z,14.23
2022-09-30T12:38:40.340Z,12.67
2022-09-30T12:40:52.355Z,14.90
2022-09-30T12:43:20.807Z,15.63
2022-09-30T12:45:24.873Z,11.57
2022-09-30T12:47:38.103Z,11.33
2022-09-30T12:49:19.956Z,11.67
2022-09-30T12:50:58.124Z,11.27
2022-09-30T12:52:35.470Z,9.13
2022-09-30T12:54:20.885Z,9.63
2022-09-30T12:55:54.576Z,10.57
2022-09-30T12:57:32.585Z,11.13
2022-09-30T12:59:05.155Z,11.33
2022-09-30T13:00:38.547Z,14.87
2022-09-30T13:02:40.372Z,11.80
2022-09-30T13:04:31.874Z,14.70
2022-09-30T13:06:06.556Z,12.63
2022-09-30T13:08:04.711Z,12.87
2022-09-30T13:10:01.631Z,15.03
2022-09-30T13:11:42.559Z,12.33
2022-09-30T13:13:24.499Z,11.17
2022-09-30T13:15:42.690Z,11.47
2022-09-30T13:17:18.200Z,12.27
2022-09-30T13:18:53.386Z,12.10
2022-09-30T13:20:57.100Z,10.67
2022-09-30T13:22:31.847Z,11.73
2022-09-30T13:24:05.620Z,11.40
2022-09-30T13:25:56.555Z,9.80
2022-09-30T13:27:38.035Z,10.30
2022-09-30T13:29:19.659Z,9.77
2022-09-30T13:31:15.879Z,10.07
2022-09-30T13:33:02.311Z,10.63
2022-09-30T13:34:54.497Z,11.47
2022-09-30T13:36:44.353Z,11.87
2022-09-30T13:38:32.797Z,16.27
2022-09-30T13:40:15.767Z,14.23
2022-09-30T13:42:21.705Z,12.03
2022-09-30T13:44:04.563Z,11.50
2022-09-30T13:45:39.514Z,11.90
2022-09-30T13:47:26.345Z,12.67
2022-09-30T13:49:03.443Z,13.00
2022-09-30T13:50:56.089Z,12.87
2022-09-30T13:52:38.240Z,18.40
2022-09-30T13:54:35.865Z,16.20
2022-09-30T13:56:19.978Z,17.23
2022-09-30T13:58:56.787Z,23.47
2022-09-30T14:00:46.915Z,18.20
2022-09-30T14:02:28.384Z,17.90
2022-09-30T14:04:26.492Z,15.87
2022-09-30T14:06:04.700Z,14.20
2022-09-30T14:08:09.867Z,15.47
2022-09-30T14:10:22.793Z,15.73
2022-09-30T14:12:13.571Z,12.50
2022-09-30T14:14:05.325Z,14.30
2022-09-30T14:16:03.343Z,10.90
2022-09-30T14:18:23.324Z,10.33
2022-09-30T14:20:07.534Z,8.87
2022-09-30T14:21:55.064Z,11.03
2022-09-30T14:23:28.067Z,12.47
2022-09-30T14:25:01.075Z,13.60
2022-09-30T14:26:57.568Z,8.17
2022-09-30T14:28:49.279Z,10.73
2022-09-30T14:30:27.988Z,13.63
2022-09-30T14:32:01.169Z,10.87
2022-09-30T14:33:34.840Z,18.60
2022-09-30T14:35:12.596Z,14.00
2022-09-30T14:36:46.292Z,14.90
2022-09-30T14:38:28.325Z,16.67
2022-09-30T14:40:01.587Z,15.80
2022-09-30T14:41:34.909Z,17.73
2022-09-30T14:43:15.685Z,19.57
2022-09-30T14:44:53.599Z,18.20
2022-09-30T14:46:41.588Z,17.03
2022-09-30T14:48:24.879Z,17.27
2022-09-30T14:49:58.445Z,15.93
2022-09-30T14:51:43.509Z,22.53
2022-09-30T14:53:34.759Z,20.97
2022-09-30T14:55:25.535Z,21.23
2022-09-30T14:57:01.766Z,21.40
2022-09-30T14:58:44.869Z,21.07
2022-09-30T15:00:26.717Z,20.87
2022-09-30T15:02:03.907Z,20.83
2022-09-30T15:03:41.412Z,26.00
2022-09-30T15:05:17.774Z,25.50
2022-09-30T15:06:53.157Z,23.80
2022-09-30T15:08:25.846Z,24.37
2022-09-30T15:10:02.528Z,21.33
2022-09-30T15:11:39.458Z,25.60
2022-09-30T15:13:12.033Z,20.80
2022-09-30T15:14:48.464Z,21.37
2022-09-30T15:16:30.907Z,19.30
2022-09-30T15:18:43.049Z,18.77
2022-09-30T15:20:31.550Z,17.73
2022-09-30T15:22:07.177Z,20.17
2022-09-30T15:23:45.186Z,16.30
2022-09-30T15:25:22.225Z,17.60
2022-09-30T15:26:55.599Z,13.77
2022-09-30T15:28:28.178Z,16.67
2022-09-30T15:30:22.528Z,17.23
2022-09-30T15:32:24.573Z,14.17
2022-09-30T15:34:21.722Z,23.93
2022-09-30T15:36:18.923Z,20.30
2022-09-30T15:37:53.013Z,24.30
2022-09-30T15:39:47.685Z,23.40
2022-09-30T15:41:19.941Z,22.20
2022-09-30T15:43:15.600Z,26.97
2022-09-30T15:44:48.200Z,28.13
2022-09-30T15:46:27.896Z,20.03
2022-09-30T15:48:16.879Z,25.33
2022-09-30T15:49:49.972Z,27.40
2022-09-30T15:51:32.324Z,24.63
2022-09-30T15:53:36.476Z,20.63
2022-09-30T15:55:41.767Z,22.00
2022-09-30T15:57:51.526Z,22.70
2022-09-30T16:00:02.203Z,22.27
2022-09-30T16:01:48.904Z,21.63
2022-09-30T16:03:31.291Z,19.90
2022-09-30T16:05:05.428Z,24.87
2022-09-30T16:07:08.964Z,22.87
2022-09-30T16:08:54.318Z,23.57
2022-09-30T16:10:29.154Z,20.93
2022-09-30T16:12:12.310Z,20.80
2022-09-30T16:13:45.839Z,17.97
2022-09-30T16:15:18.073Z,21.77
2022-09-30T16:16:56.053Z,22.23
2022-09-30T16:18:34.021Z,34.97
2022-09-30T16:20:17.484Z,32.93
2022-09-30T16:21:51.725Z,25.80
2022-09-30T16:23:43.160Z,38.17
2022-09-30T16:25:28.223Z,37.30
2022-09-30T16:27:29.888Z,35.00
2022-09-30T16:29:08.222Z,27.73
2022-09-30T16:30:47.021Z,24.60
2022-09-30T16:32:19.947Z,24.43
2022-09-30T16:33:52.062Z,25.80
2022-09-30T16:35:28.280Z,24.13
2022-09-30T16:37:17.443Z,25.40
2022-09-30T16:38:49.589Z,23.90
2022-09-30T16:40:26.436Z,23.20
2022-09-30T16:41:59.285Z,33.57
2022-09-30T16:43:32.147Z,29.07
2022-09-30T16:45:05.130Z,31.17
2022-09-30T16:46:37.827Z,27.33
2022-09-30T16:48:16.696Z,30.17
2022-09-30T16:49:51.105Z,25.13
2022-09-30T16:51:23.250Z,31.23
2022-09-30T16:52:56.422Z,47.43
2022-09-30T16:54:28.744Z,57.13
2022-09-30T16:56:01.373Z,189.10
2022-09-30T16:57:33.692Z,268.27
2022-09-30T16:59:13.812Z,69.23
2022-09-30T17:00:46.829Z,165.10
2022-09-30T17:02:20.237Z,138.60
2022-09-30T17:03:57.516Z,151.53
2022-09-30T17:05:29.792Z,199.97
2022-09-30T17:07:02.481Z,66.97
2022-09-30T17:08:34.664Z,78.87
2022-09-30T17:10:13.565Z,73.77
2022-09-30T17:11:46.696Z,68.70
2022-09-30T17:13:19.730Z,89.77
2022-09-30T17:14:52.783Z,53.23
2022-09-30T17:18:12.417Z,52.20
2022-09-30T17:19:44.805Z,52.00
2022-09-30T17:21:27.975Z,56.97
2022-09-30T17:23:02.637Z,54.33
2022-09-30T17:24:38.622Z,44.00
2022-09-30T17:26:11.085Z,54.47
2022-09-30T17:27:44.669Z,69.10
2022-09-30T17:29:33.308Z,72.50
2022-09-30T17:31:06.078Z,66.40
2022-09-30T17:32:38.876Z,62.90
2022-09-30T17:34:11.166Z,55.50
2022-09-30T17:35:43.342Z,54.17
2022-09-30T17:37:15.742Z,67.43
2022-09-30T17:38:53.873Z,75.83
2022-09-30T17:40:45.095Z,56.87
2022-09-30T17:42:35.636Z,67.20
2022-09-30T17:44:08.070Z,83.73
2022-09-30T17:45:44.080Z,73.60
2022-09-30T17:47:16.296Z,75.40
2022-09-30T17:48:50.814Z,75.20
2022-09-30T17:50:23.265Z,77.17
2022-09-30T17:51:55.525Z,60.17
2022-09-30T17:53:29.294Z,80.80
2022-09-30T17:55:01.672Z,53.90
2022-09-30T17:56:35.007Z,43.17
2022-09-30T17:58:09.297Z,52.43
2022-09-30T17:59:46.569Z,54.17
2022-09-30T18:01:21.380Z,67.27
2022-09-30T18:02:54.897Z,66.53
2022-09-30T18:04:27.256Z,63.20
2022-09-30T18:05:59.956Z,59.20
2022-09-30T18:07:32.184Z,52.60
2022-09-30T18:09:04.562Z,50.80
2022-09-30T18:10:37.986Z,54.47
2022-09-30T18:12:10.191Z,59.70
2022-09-30T18:13:42.290Z,60.97
2022-09-30T18:15:16.642Z,66.57
2022-09-30T18:16:48.862Z,67.93
2022-09-30T18:18:21.914Z,79.20
2022-09-30T18:19:54.097Z,79.60
2022-09-30T18:21:27.630Z,97.50
2022-09-30T18:22:59.738Z,95.30
2022-09-30T18:24:51.221Z,100.53
2022-09-30T18:26:33.341Z,78.13
2022-09-30T18:28:08.795Z,127.87
2022-09-30T18:29:41.061Z,103.03
2022-09-30T18:31:20.091Z,130.63
2022-09-30T18:32:54.410Z,113.63
2022-09-30T18:34:26.867Z,81.93
2022-09-30T18:36:01.661Z,112.37
2022-09-30T18:37:33.920Z,110.50
2022-09-30T18:39:06.173Z,89.43
2022-09-30T18:40:43.611Z,69.63
2022-09-30T18:42:17.535Z,80.80
2022-09-30T18:43:56.324Z,76.50
2022-09-30T18:45:32.203Z,87.93
2022-09-30T18:47:05.945Z,82.77
2022-09-30T18:48:39.916Z,82.57
2022-09-30T18:50:13.946Z,74.67
2022-09-30T18:51:47.019Z,68.80
2022-09-30T18:53:22.805Z,62.20
2022-09-30T18:54:55.290Z,71.07
2022-09-30T18:56:31.888Z,72.20
2022-09-30T18:58:04.828Z,59.27
2022-09-30T18:59:37.225Z,70.27
2022-09-30T19:01:09.681Z,67.50
2022-09-30T19:02:44.621Z,63.60
2022-09-30T19:04:17.164Z,60.00
2022-09-30T19:05:49.591Z,80.33
2022-09-30T19:07:22.288Z,75.33
2022-09-30T19:08:54.390Z,74.60
2022-09-30T19:10:26.933Z,94.23
2022-09-30T19:12:00.014Z,77.87
2022-09-30T19:13:32.205Z,68.63
2022-09-30T19:15:11.771Z,72.90
2022-09-30T19:16:44.607Z,81.40
2022-09-30T19:18:17.944Z,168.47
2022-09-30T19:19:50.809Z,85.83
2022-09-30T19:21:22.984Z,94.50
2022-09-30T19:22:55.897Z,76.57
2022-09-30T19:24:28.319Z,98.93
2022-09-30T19:26:01.214Z,81.00
2022-09-30T19:27:37.732Z,300.17
2022-09-30T19:29:11.098Z,139.27
2022-09-30T19:30:43.568Z,132.07
2022-09-30T19:32:18.797Z,134.63
2022-09-30T19:33:56.875Z,144.10
2022-09-30T19:35:39.031Z,344.53
2022-09-30T19:37:25.698Z,196.37
2022-09-30T19:39:11.508Z,361.20
2022-09-30T19:40:45.341Z,226.00
2022-09-30T19:42:18.378Z,150.50
2022-09-30T19:43:50.846Z,92.80
2022-09-30T19:45:25.658Z,95.37
2022-09-30T19:46:58.817Z,83.37
2022-09-30T19:48:37.245Z,101.87
2022-09-30T19:50:09.728Z,70.53
2022-09-30T19:51:42.521Z,96.97
2022-09-30T19:53:27.288Z,99.07
2022-09-30T19:55:11.770Z,80.07
2022-09-30T19:56:49.009Z,94.47
2022-09-30T19:58:21.364Z,72.00
2022-09-30T19:59:53.961Z,100.60
2022-09-30T20:01:31.644Z,78.87
2022-09-30T20:03:04.196Z,109.53
2022-09-30T20:04:36.394Z,136.73
2022-09-30T20:06:15.250Z,83.10
2022-09-30T20:07:51.063Z,123.93
2022-09-30T20:09:24.311Z,134.37
2022-09-30T20:11:10.094Z,185.20
2022-09-30T20:12:43.423Z,124.17
2022-09-30T20:14:34.420Z,118.43
2022-09-30T20:16:10.883Z,286.50
2022-09-30T20:17:43.238Z,98.37
2022-09-30T20:19:17.426Z,120.47
2022-09-30T20:20:50.047Z,98.27
2022-09-30T20:22:26.093Z,138.43
2022-09-30T20:24:02.435Z,335.13
2022-09-30T20:25:35.276Z,296.03
2022-09-30T20:27:08.243Z,143.73
2022-09-30T20:28:41.997Z,219.73
2022-09-30T20:30:14.391Z,115.93
2022-09-30T20:31:48.324Z,222.97
2022-09-30T20:33:24.464Z,122.33
2022-09-30T20:34:56.973Z,147.67
2022-09-30T20:36:31.337Z,99.90
2022-09-30T20:38:04.034Z,107.10
2022-09-30T20:39:40.483Z,103.80
2022-09-30T20:41:12.673Z,100.47
2022-09-30T20:42:44.921Z,100.90
2022-09-30T20:44:19.459Z,117.10
2022-09-30T20:46:08.290Z,102.53
2022-09-30T20:47:45.745Z,150.80
2022-09-30T20:49:17.852Z,129.57
2022-09-30T20:50:50.122Z,129.57
2022-09-30T20:52:22.426Z,304.13
2022-09-30T20:53:56.266Z,124.97
2022-09-30T20:55:28.396Z,146.73
2022-09-30T20:57:07.118Z,114.50
2022-09-30T20:58:40.222Z,113.83
2022-09-30T21:00:16.261Z,105.53
2022-09-30T21:01:48.488Z,96.53
2022-09-30T21:03:21.520Z,108.70
2022-09-30T21:04:55.492Z,95.83
2022-09-30T21:06:30.140Z,134.27
2022-09-30T21:08:03.319Z,87.53
2022-09-30T21:09:36.431Z,155.63
2022-09-30T21:11:10.969Z,101.63
2022-09-30T21:12:44.381Z,107.13
2022-09-30T21:14:18.369Z,115.60
2022-09-30T21:16:04.026Z,169.30
2022-09-30T21:17:37.088Z,99.20
2022-09-30T21:19:10.437Z,271.20
2022-09-30T21:20:42.789Z,162.17
2022-09-30T21:22:15.157Z,155.00
2022-09-30T21:23:47.850Z,333.60
2022-09-30T21:25:20.201Z,183.10
2022-09-30T21:26:55.899Z,471.93
2022-09-30T21:28:29.563Z,269.10
2022-09-30T21:30:02.424Z,136.73
2022-09-30T21:31:35.487Z,116.83
2022-09-30T21:33:07.941Z,150.57
2022-09-30T21:34:41.630Z,530.97
2022-09-30T21:36:13.949Z,731.13
2022-09-30T21:37:48.773Z,613.83
2022-09-30T21:39:20.969Z,766.03
2022-09-30T21:41:00.172Z,1013.93
2022-09-30T21:42:33.549Z,209.37
2022-09-30T21:44:05.905Z,160.60